.
WxDataArchive / Data Records for 2012-01-05
2012-01-04 January 2012 2012-01-06

Data Records for Thursday, 05 January 2012

Time	Temp	Chill	HIndex	Humid	Dewpt	 Wind 	HiWind	WindDir	Rain 	Barom 
-----	----	-----	------	-----	-----	------	------	-------	-----	----- 
00:00	32.8	32.8	32.8	77	26.4	0	2	338	0.00	30.008 
00:05	32.7	32.7	32.7	77	26.3	0	1	338	0.00	30.008 
00:10	32.5	32.5	32.5	77	26.1	0	1	338	0.00	30.008 
00:15	32.4	32.4	32.4	78	26.3	0	2	338	0.00	30.001 
00:20	32.4	32.4	32.4	78	26.3	0	1	338	0.00	30.001 
00:25	32.2	32.2	32.2	78	26.1	0	1	338	0.00	30.001 
00:30	32.2	32.2	32.2	78	26.1	0	1	338	0.00	30.001 
00:35	32.2	32.2	32.2	79	26.4	0	2	338	0.00	30.001 
00:40	32.2	32.2	32.2	79	26.4	0	2	338	0.00	30.001 
00:45	32.2	32.2	32.2	79	26.4	1	3	338	0.00	30.003 
00:50	32.2	32.2	32.2	79	26.4	1	3	315	0.00	30.003 
00:55	32.2	32.2	32.2	79	26.4	1	2	315	0.00	30.003 
01:00	32.2	32.2	32.2	79	26.4	1	3	315	0.00	30.003 
01:05	32.2	32.2	32.2	79	26.4	1	4	315	0.00	30.003 
01:10	32.1	32.1	32.1	79	26.3	0	3	315	0.00	30.003 
01:15	31.9	31.9	31.9	79	26.1	0	2	315	0.00	29.999 
01:20	31.8	31.8	31.8	79	26.0	0	2	315	0.00	29.999 
01:25	31.8	31.8	31.8	79	26.0	0	2	315	0.00	29.999 
01:30	31.5	31.5	31.5	79	25.8	0	1	315	0.00	30.000 
01:35	31.3	31.3	31.3	79	25.6	0	1	315	0.00	30.000 
01:40	31.0	31.0	31.0	80	25.6	0	1	315	0.00	30.000 
01:45	31.0	31.0	31.0	80	25.6	0	1	315	0.00	30.006 
01:50	30.9	30.9	30.9	80	25.5	0	3	315	0.00	30.006 
01:55	30.9	30.9	30.9	81	25.8	0	2	315	0.00	30.006 
02:00	30.7	30.7	30.7	80	25.3	0	1	315	0.00	30.006 
02:05	30.6	30.6	30.6	80	25.2	0	1	315	0.00	30.006 
02:10	30.6	30.6	30.6	81	25.5	0	1	315	0.00	30.006 
02:15	30.4	30.4	30.4	81	25.3	0	1	315	0.00	30.017 
02:20	30.3	30.3	30.3	81	25.2	0	1	315	0.00	30.017 
02:25	30.1	30.1	30.1	81	25.0	0	1	315	0.00	30.017 
02:30	30.1	30.1	30.1	81	25.0	0	2	315	0.00	30.019 
02:35	30.1	30.1	30.1	81	25.0	0	2	315	0.00	30.019 
02:40	30.0	30.0	30.0	81	24.9	0	2	315	0.00	30.019 
02:45	30.0	30.0	30.0	81	24.9	0	2	315	0.00	30.021 
02:50	29.8	29.8	29.8	81	24.7	1	2	315	0.00	30.021 
02:55	29.8	29.8	29.8	81	24.7	0	1	315	0.00	30.021 
03:00	29.7	29.7	29.7	81	24.6	0	2	315	0.00	30.019 
03:05	29.5	29.5	29.5	81	24.4	0	1	315	0.00	30.019 
03:10	29.5	29.5	29.5	81	24.4	0	1	315	0.00	30.019 
03:15	29.4	29.4	29.4	81	24.3	0	2	315	0.00	30.022 
03:20	29.4	29.4	29.4	81	24.3	0	2	315	0.00	30.022 
03:25	29.3	29.3	29.3	81	24.2	0	1	315	0.00	30.022 
03:30	29.1	29.1	29.1	81	24.0	0	2	315	0.00	30.025 
03:35	29.0	29.0	29.0	81	23.9	0	1	315	0.00	30.025 
03:40	29.0	29.0	29.0	81	23.9	0	1	315	0.00	30.025 
03:45	28.8	28.8	28.8	81	23.7	0	1	315	0.00	30.025 
03:50	28.7	28.7	28.7	81	23.6	0	1	315	0.00	30.025 
03:55	28.7	28.7	28.7	81	23.6	0	2	315	0.00	30.025 
04:00	28.5	28.5	28.5	82	23.7	0	2	315	0.00	30.025 
04:05	28.5	28.5	28.5	82	23.7	0	1	315	0.00	30.025 
04:10	28.4	28.4	28.4	82	23.6	0	1	315	0.00	30.025 
04:15	28.2	28.2	28.2	82	23.4	0	1	315	0.00	30.032 
04:20	28.2	28.2	28.2	82	23.4	0	1	315	0.00	30.032 
04:25	28.1	28.1	28.1	82	23.3	0	1	315	0.00	30.032 
04:30	28.1	28.1	28.1	82	23.3	0	2	315	0.00	30.033 
04:35	28.1	28.1	28.1	82	23.3	0	3	315	0.00	30.033 
04:40	28.1	28.1	28.1	82	23.3	0	1	315	0.00	30.033 
04:45	28.1	28.1	28.1	82	23.3	0	1	315	0.00	30.029 
04:50	27.9	27.9	27.9	82	23.1	0	1	315	0.00	30.029 
04:55	27.9	27.9	27.9	82	23.1	0	1	315	0.00	30.029 
05:00	27.9	27.9	27.9	82	23.1	0	1	315	0.00	30.034 
05:05	27.8	27.8	27.8	81	22.7	0	0	---	0.00	30.034 
05:10	27.8	27.8	27.8	81	22.7	0	0	---	0.00	30.034 
05:15	27.6	27.6	27.6	81	22.5	0	0	---	0.00	30.040 
05:20	27.6	27.6	27.6	81	22.5	0	1	315	0.00	30.040 
05:25	27.6	27.6	27.6	81	22.5	0	1	315	0.00	30.040 
05:30	27.5	27.5	27.5	81	22.4	0	1	315	0.00	30.042 
05:35	27.5	27.5	27.5	81	22.4	0	1	315	0.00	30.042 
05:40	27.3	27.3	27.3	81	22.3	0	0	---	0.00	30.042 
05:45	27.2	27.2	27.2	81	22.2	0	1	315	0.00	30.043 
05:50	27.0	27.0	27.0	81	22.0	0	0	---	0.00	30.043 
05:55	26.9	26.9	26.9	82	22.2	0	0	---	0.00	30.043 
06:00	26.7	26.7	26.7	82	22.0	0	0	---	0.00	30.046 
06:05	26.6	26.6	26.6	82	21.9	0	0	---	0.00	30.046 
06:10	26.4	26.4	26.4	82	21.7	0	0	---	0.00	30.046 
06:15	26.1	26.1	26.1	82	21.4	0	0	---	0.00	30.051 
06:20	26.0	26.0	26.0	82	21.3	0	0	---	0.00	30.051 
06:25	25.7	25.7	25.7	83	21.3	0	0	---	0.00	30.051 
06:30	25.6	25.6	25.6	83	21.2	0	0	---	0.00	30.047 
06:35	25.4	25.4	25.4	83	21.0	0	0	---	0.00	30.047 
06:40	25.3	25.3	25.3	84	21.2	0	0	---	0.00	30.047 
06:45	25.1	25.1	25.1	84	21.0	0	0	---	0.00	30.043 
06:50	25.1	25.1	25.1	84	21.0	0	0	---	0.00	30.043 
06:55	25.1	25.1	25.1	84	21.0	0	0	---	0.00	30.043 
07:00	25.3	25.3	25.3	85	21.4	0	0	---	0.00	30.041 
07:05	25.3	25.3	25.3	85	21.4	0	0	---	0.00	30.041 
07:10	25.3	25.3	25.3	85	21.4	0	1	315	0.00	30.041 
07:15	25.4	25.4	25.4	85	21.5	0	1	315	0.00	30.035 
07:20	25.6	25.6	25.6	85	21.7	0	1	315	0.00	30.035 
07:25	26.0	26.0	26.0	86	22.4	0	0	---	0.00	30.035 
07:30	26.3	26.3	26.3	86	22.7	0	2	315	0.00	30.037 
07:35	26.6	26.6	26.6	85	22.7	0	2	315	0.00	30.037 
07:40	26.7	26.7	26.7	85	22.8	0	3	315	0.00	30.037 
07:45	27.0	27.0	27.0	85	23.1	0	2	292	0.00	30.026 
07:50	27.2	27.2	27.2	84	23.0	0	1	292	0.00	30.026 
07:55	27.3	27.3	27.3	84	23.1	0	2	292	0.00	30.026 
08:00	27.5	27.5	27.5	83	23.0	0	3	270	0.00	30.030 
08:05	27.6	27.6	27.6	83	23.1	0	2	270	0.00	30.030 
08:10	27.8	27.8	27.8	82	23.0	0	3	270	0.00	30.030 
08:15	27.9	27.9	27.9	81	22.8	1	4	270	0.00	30.028 
08:20	28.2	28.2	28.2	81	23.1	0	2	248	0.00	30.028 
08:25	28.2	28.2	28.2	81	23.1	0	2	248	0.00	30.028 
08:30	28.4	28.4	28.4	80	23.0	1	3	248	0.00	30.028 
08:35	28.5	28.5	28.5	80	23.1	0	2	248	0.00	30.028 
08:40	28.7	28.7	28.7	79	23.0	1	4	248	0.00	30.028 
08:45	28.7	28.7	28.7	79	23.0	1	3	248	0.00	30.024 
08:50	28.8	28.8	28.8	79	23.1	0	3	248	0.00	30.024 
08:55	28.8	28.8	28.8	79	23.1	0	2	248	0.00	30.024 
09:00	28.8	28.8	28.8	78	22.8	1	4	248	0.00	30.024 
09:05	29.0	29.0	29.0	78	23.0	1	4	248	0.00	30.024 
09:10	29.1	29.1	29.1	78	23.1	0	3	248	0.00	30.024 
09:15	29.4	29.4	29.4	78	23.4	0	3	248	0.00	30.025 
09:20	29.7	29.7	29.7	78	23.7	1	3	248	0.00	30.025 
09:25	29.8	29.8	29.8	77	23.5	1	3	248	0.00	30.025 
09:30	29.8	29.8	29.8	77	23.5	0	2	248	0.00	30.023 
09:35	30.0	30.0	30.0	77	23.7	0	2	248	0.00	30.023 
09:40	30.3	30.3	30.3	77	24.0	0	1	248	0.00	30.023 
09:45	30.6	30.6	30.6	77	24.3	1	3	248	0.00	30.023 
09:50	30.7	30.7	30.7	76	24.0	1	5	248	0.00	30.023 
09:55	31.0	31.0	31.0	76	24.3	1	5	248	0.00	30.023 
10:00	31.3	31.3	31.3	75	24.3	1	4	248	0.00	30.018 
10:05	31.6	31.6	31.6	75	24.6	1	3	248	0.00	30.018 
10:10	31.8	31.8	31.8	74	24.5	1	4	248	0.00	30.018 
10:15	32.1	32.1	32.1	73	24.4	1	4	248	0.00	30.015 
10:20	32.4	32.4	32.4	73	24.7	1	3	248	0.00	30.015 
10:25	32.8	32.8	32.8	72	24.8	1	4	248	0.00	30.015 
10:30	33.1	33.1	33.1	72	25.1	1	3	248	0.00	30.020 
10:35	33.4	33.4	33.4	71	25.0	0	3	248	0.00	30.020 
10:40	33.7	33.7	33.7	71	25.3	1	3	248	0.00	30.020 
10:45	34.0	34.0	34.0	70	25.3	0	2	248	0.00	30.021 
10:50	34.4	34.4	34.4	69	25.3	1	5	248	0.00	30.021 
10:55	34.7	34.7	34.7	69	25.6	0	2	248	0.00	30.021 
11:00	35.2	35.2	35.2	68	25.7	1	4	248	0.00	30.021 
11:05	35.5	35.5	35.5	67	25.6	1	2	248	0.00	30.021 
11:10	35.8	35.8	35.8	66	25.6	1	3	248	0.00	30.021 
11:15	36.0	36.0	36.0	66	25.8	0	3	248	0.00	30.016 
11:20	36.5	36.5	36.5	65	25.9	0	2	338	0.00	30.016 
11:25	36.9	36.9	36.9	64	25.9	1	4	248	0.00	30.016 
11:30	37.2	37.2	37.2	63	25.8	1	3	248	0.00	30.000 
11:35	37.5	37.5	37.5	62	25.7	1	3	270	0.00	30.000 
11:40	37.9	37.9	37.9	62	26.1	1	6	270	0.00	30.000 
11:45	38.3	38.3	38.3	61	26.0	2	4	248	0.00	29.987 
11:50	38.5	38.5	38.5	59	25.4	1	3	248	0.00	29.987 
11:55	38.8	38.8	38.8	59	25.7	1	4	248	0.00	29.987 
12:00	39.1	39.1	39.1	59	26.0	1	4	248	0.00	29.980 
12:05	39.5	39.5	39.5	59	26.4	0	3	248	0.00	29.980 
12:10	39.8	39.8	39.8	58	26.2	1	3	248	0.00	29.980 
12:15	40.2	40.2	40.2	58	26.6	1	4	45	0.00	29.964 
12:20	40.3	40.3	40.3	54	25.0	3	7	248	0.00	29.964 
12:25	40.5	40.5	40.5	54	25.2	2	9	248	0.00	29.964 
12:30	40.6	40.6	40.6	54	25.3	2	6	248	0.00	29.954 
12:35	40.8	40.8	40.8	55	25.9	2	4	270	0.00	29.954 
12:40	40.9	40.9	40.9	54	25.6	2	9	248	0.00	29.954 
12:45	41.2	41.2	41.2	54	25.8	1	6	248	0.00	29.940 
12:50	41.3	41.3	41.3	54	25.9	1	5	248	0.00	29.940 
12:55	41.6	41.6	41.6	53	25.8	2	7	270	0.00	29.940 
13:00	41.8	41.8	41.8	54	26.4	3	6	270	0.00	29.923 
13:05	42.1	42.1	42.1	53	26.2	2	7	248	0.00	29.923 
13:10	42.2	42.2	42.2	53	26.3	2	7	292	0.00	29.923 
13:15	42.3	42.3	42.3	53	26.4	2	9	248	0.00	29.918 
13:20	42.5	42.5	42.5	52	26.1	3	11	248	0.00	29.918 
13:25	42.6	42.6	42.6	54	27.1	2	6	248	0.00	29.918 
13:30	42.9	42.9	42.9	54	27.4	1	3	270	0.00	29.914 
13:35	43.2	43.2	43.2	53	27.2	2	8	248	0.00	29.914 
13:40	43.5	43.5	43.5	54	28.0	1	5	248	0.00	29.914 
13:45	43.8	43.8	43.8	52	27.3	3	7	270	0.00	29.912 
13:50	43.6	43.6	43.6	53	27.6	3	9	248	0.00	29.912 
13:55	43.6	43.6	43.6	53	27.6	3	5	248	0.00	29.912 
14:00	43.6	43.6	43.6	53	27.6	3	7	248	0.00	29.913 
14:05	43.6	43.6	43.6	54	28.1	2	6	248	0.00	29.913 
14:10	43.8	43.8	43.8	54	28.3	2	7	248	0.00	29.913 
14:15	43.9	43.9	43.9	54	28.3	2	6	248	0.00	29.905 
14:20	44.1	44.1	44.1	54	28.5	2	6	248	0.00	29.905 
14:25	44.1	44.1	44.1	54	28.5	2	6	248	0.00	29.905 
14:30	44.1	44.1	44.1	55	29.0	2	10	248	0.00	29.904 
14:35	44.2	44.2	44.2	54	28.6	3	7	248	0.00	29.904 
14:40	44.3	44.3	44.3	54	28.7	2	5	248	0.00	29.904 
14:45	44.3	44.3	44.3	54	28.7	2	6	248	0.00	29.903 
14:50	44.5	44.5	44.5	54	28.9	3	6	248	0.00	29.903 
14:55	44.6	44.6	44.6	54	29.0	3	5	248	0.00	29.903 
15:00	44.5	44.5	44.5	55	29.3	2	8	248	0.00	29.899 
15:05	44.6	44.6	44.6	55	29.4	1	4	248	0.00	29.899 
15:10	44.5	44.5	44.5	55	29.3	1	4	248	0.00	29.899 
15:15	44.3	44.3	44.3	56	29.6	1	3	248	0.00	29.893 
15:20	44.2	44.2	44.2	56	29.5	1	3	248	0.00	29.893 
15:25	44.1	44.1	44.1	57	29.9	1	3	248	0.00	29.893 
15:30	44.2	44.2	44.2	58	30.4	1	3	248	0.00	29.888 
15:35	44.5	44.5	44.5	57	30.2	1	4	248	0.00	29.888 
15:40	44.8	44.8	44.8	57	30.5	1	5	270	0.00	29.888 
15:45	44.9	44.9	44.9	57	30.6	1	4	248	0.00	29.884 
15:50	44.9	44.9	44.9	57	30.6	2	5	248	0.00	29.884 
15:55	45.1	45.1	45.1	57	30.8	1	4	248	0.00	29.884 
16:00	44.9	44.9	44.9	57	30.6	1	6	248	0.00	29.871 
16:05	44.9	44.9	44.9	58	31.0	1	4	248	0.00	29.871 
16:10	44.8	44.8	44.8	58	30.9	1	4	248	0.00	29.871 
16:15	44.6	44.6	44.6	58	30.7	1	4	248	0.00	29.872 
16:20	44.5	44.5	44.5	59	31.1	1	4	248	0.00	29.872 
16:25	44.6	44.6	44.6	59	31.2	1	3	248	0.00	29.872 
16:30	44.6	44.6	44.6	59	31.2	0	3	248	0.00	29.874 
16:35	44.6	44.6	44.6	59	31.2	1	3	248	0.00	29.874 
16:40	44.5	44.5	44.5	59	31.1	1	3	248	0.00	29.874 
16:45	44.3	44.3	44.3	59	30.9	2	5	248	0.00	29.873 
16:50	44.2	44.2	44.2	60	31.2	1	5	248	0.00	29.873 
16:55	43.9	43.9	43.9	61	31.3	0	2	248	0.00	29.873 
17:00	43.5	43.5	43.5	62	31.4	1	3	248	0.00	29.867 
17:05	43.3	43.3	43.3	62	31.2	0	3	248	0.00	29.867 
17:10	43.2	43.2	43.2	62	31.1	0	1	248	0.00	29.867 
17:15	43.1	43.1	43.1	63	31.4	0	2	248	0.00	29.869 
17:20	42.8	42.8	42.8	63	31.1	0	2	248	0.00	29.869 
17:25	42.5	42.5	42.5	64	31.2	0	2	248	0.00	29.869 
17:30	42.2	42.2	42.2	64	30.9	0	2	248	0.00	29.868 
17:35	41.9	41.9	41.9	65	31.0	0	1	248	0.00	29.868 
17:40	41.6	41.6	41.6	66	31.1	0	1	248	0.00	29.868 
17:45	41.3	41.3	41.3	66	30.8	0	2	248	0.00	29.866 
17:50	41.1	41.1	41.1	67	31.0	0	0	---	0.00	29.866 
17:55	40.8	40.8	40.8	68	31.1	0	1	248	0.00	29.866 
18:00	40.5	40.5	40.5	69	31.1	0	1	248	0.00	29.873 
18:05	40.3	40.3	40.3	70	31.3	0	1	248	0.00	29.873 
18:10	40.2	40.2	40.2	70	31.2	0	1	248	0.00	29.873 
18:15	40.1	40.1	40.1	71	31.5	0	2	248	0.00	29.872 
18:20	39.9	39.9	39.9	72	31.6	0	2	248	0.00	29.872 
18:25	39.8	39.8	39.8	72	31.5	0	1	248	0.00	29.872 
18:30	39.6	39.6	39.6	72	31.3	0	1	248	0.00	29.867 
18:35	39.6	39.6	39.6	73	31.7	0	1	248	0.00	29.867 
18:40	39.6	39.6	39.6	73	31.7	0	1	248	0.00	29.867 
18:45	39.5	39.5	39.5	73	31.6	0	2	248	0.00	29.863 
18:50	39.5	39.5	39.5	73	31.6	0	2	248	0.00	29.863 
18:55	39.5	39.5	39.5	73	31.6	1	3	248	0.00	29.863 
19:00	39.5	39.5	39.5	73	31.6	0	1	248	0.00	29.856 
19:05	39.5	39.5	39.5	74	31.9	0	2	248	0.00	29.856 
19:10	39.6	39.6	39.6	74	32.0	0	4	225	0.00	29.856 
19:15	39.6	39.6	39.6	74	32.0	1	4	225	0.00	29.848 
19:20	39.8	39.8	39.8	73	31.9	1	3	248	0.00	29.848 
19:25	39.9	39.9	39.9	73	32.0	1	4	248	0.00	29.848 
19:30	39.9	39.9	39.9	73	32.0	1	4	248	0.00	29.851 
19:35	40.1	40.1	40.1	73	32.2	1	5	248	0.00	29.851 
19:40	40.2	40.2	40.2	73	32.2	2	4	270	0.00	29.851 
19:45	40.3	40.3	40.3	72	32.0	1	5	248	0.00	29.845 
19:50	40.3	40.3	40.3	72	32.0	1	5	248	0.00	29.845 
19:55	40.3	40.3	40.3	72	32.0	1	5	248	0.00	29.845 
20:00	40.3	40.3	40.3	72	32.0	1	6	248	0.00	29.844 
20:05	40.3	40.3	40.3	72	32.0	1	6	248	0.00	29.844 
20:10	40.3	40.3	40.3	72	32.0	2	9	248	0.00	29.844 
20:15	40.3	40.3	40.3	72	32.0	1	4	248	0.00	29.837 
20:20	40.3	40.3	40.3	72	32.0	2	5	248	0.00	29.837 
20:25	40.3	40.3	40.3	72	32.0	2	4	248	0.00	29.837 
20:30	40.3	40.3	40.3	72	32.0	2	5	248	0.00	29.834 
20:35	40.5	40.5	40.5	72	32.2	2	6	248	0.00	29.834 
20:40	40.5	40.5	40.5	72	32.2	1	5	248	0.00	29.834 
20:45	40.3	40.3	40.3	72	32.0	2	5	248	0.00	29.834 
20:50	40.3	40.3	40.3	72	32.0	1	5	248	0.00	29.834 
20:55	40.3	40.3	40.3	72	32.0	1	4	248	0.00	29.834 
21:00	40.3	40.3	40.3	72	32.0	2	6	248	0.00	29.832 
21:05	40.3	40.3	40.3	72	32.0	1	4	248	0.00	29.832 
21:10	40.3	40.3	40.3	72	32.0	1	4	270	0.00	29.832 
21:15	40.2	40.2	40.2	72	31.9	2	6	248	0.00	29.828 
21:20	40.2	40.2	40.2	72	31.9	1	4	248	0.00	29.828 
21:25	40.1	40.1	40.1	73	32.2	1	5	225	0.00	29.828 
21:30	39.9	39.9	39.9	73	32.0	1	4	248	0.00	29.827 
21:35	39.9	39.9	39.9	73	32.0	1	5	248	0.00	29.827 
21:40	39.9	39.9	39.9	73	32.0	1	6	270	0.00	29.827 
21:45	39.9	39.9	39.9	73	32.0	1	6	248	0.00	29.821 
21:50	40.1	40.1	40.1	73	32.2	1	7	248	0.00	29.821 
21:55	40.1	40.1	40.1	73	32.2	1	4	248	0.00	29.821 
22:00	40.3	40.3	40.3	73	32.3	2	5	248	0.00	29.821 
22:05	40.6	40.6	40.6	72	32.3	1	5	248	0.00	29.821 
22:10	40.6	40.6	40.6	72	32.3	1	4	248	0.00	29.821 
22:15	40.8	40.8	40.8	71	32.1	2	5	248	0.00	29.808 
22:20	41.1	41.1	41.1	71	32.4	2	7	248	0.00	29.808 
22:25	41.1	41.1	41.1	71	32.4	1	5	225	0.00	29.808 
22:30	41.2	41.2	41.2	70	32.2	2	11	248	0.00	29.804 
22:35	41.5	41.5	41.5	70	32.5	2	5	248	0.00	29.804 
22:40	41.6	41.6	41.6	69	32.2	2	7	248	0.00	29.804 
22:45	41.8	41.8	41.8	69	32.4	2	6	248	0.00	29.795 
22:50	42.2	39.9	42.2	68	32.4	4	10	248	0.00	29.795 
22:55	42.3	42.3	42.3	68	32.5	2	5	248	0.00	29.795 
23:00	42.3	42.3	42.3	67	32.1	2	6	248	0.00	29.795 
23:05	42.2	42.2	42.2	68	32.4	2	6	248	0.00	29.795 
23:10	42.2	42.2	42.2	68	32.4	2	6	248	0.00	29.795 
23:15	42.3	42.3	42.3	67	32.1	3	9	270	0.00	29.788 
23:20	42.5	42.5	42.5	67	32.3	2	6	248	0.00	29.788 
23:25	42.5	42.5	42.5	67	32.3	2	5	248	0.00	29.788 
23:30	42.5	42.5	42.5	67	32.3	2	6	248	0.00	29.786 
23:35	42.3	42.3	42.3	67	32.1	2	5	248	0.00	29.786 
23:40	42.3	42.3	42.3	67	32.1	2	6	248	0.00	29.786 
23:45	42.3	42.3	42.3	67	32.1	2	9	225	0.00	29.784 
23:50	42.2	42.2	42.2	67	32.0	2	7	248	0.00	29.784 
23:55	42.3	42.3	42.3	67	32.1	3	7	248	0.00	29.784 

CoCoRaHS
IN-AL-39
A2 Web Hosting
Creative Commons License
GoDaddy
search engine by freefind advanced

loaded 2018-11-13 01:36:22 • last modified 2010-11-18 10:43:29
Privacy PolicyDisclaimer
• wx.awcolley.com is powered by PmWiki v.2002016 •
• all content (unless otherwise noted) © 2018 A W Colley